Auance, South Dakota
Current Conditions -  °F | °C
As of 10:58 PM on Sunday 23 Nov 2014 (Local Time) from KRCA Reporting Station
Overcast Overcast  
Wind Chill: -6°   Ceiling: 11000
Heat Index:   Visibility: 10mi
Dew Point: -7°   Wind: 23mph
Humidity: 59%   Direction: 340°NNW
Pressure: 29.72"   Gusts: 30mph
Location:  44.8511°N, 102.128°W
Report Text: KRCA 240558Z AUTO 34020G26KT 10SM OVC110 01/M06 A2972 RMK AO2 PK WND 34032/01 SLP086 T00071065 10021 20007 53006 $
Loading
Personal Weather Stations






























Interactive Weather Map New forecast layout! Learn more

10-Day Weather Forecast

Advertisements
Track Severe Weather on mobile